Time;durP1;ratioP1;P1;durP2;ratioP2;P2;SDS_P1;SDS_P2;PMS_P1;PMS_P2;Temp;Humidity;BMP_temperature;BMP_pressure;BME280_temperature;BME280_humidity;BME280_pressure;Samples;Min_cycle;Max_cycle;Signal;HPM_P1;HPM_P2
2022/02/08 00:00:26;;;;;;;43.70;5.35;;;3.40;99.90;;;1.74;100.00;101516.94;4948578;28;20111;-87
2022/02/08 00:02:55;;;;;;;40.80;4.55;;;3.40;99.90;;;1.75;100.00;101457.22;4923325;28;20030;-85
2022/02/08 00:05:23;;;;;;;59.25;5.80;;;3.30;99.90;;;1.69;100.00;101511.75;4950068;28;20041;-85
2022/02/08 00:07:54;;;;;;;65.20;6.00;;;3.30;99.90;;;1.65;100.00;101481.44;4947986;28;20583;-85
2022/02/08 00:10:22;;;;;;;64.03;5.15;;;3.30;99.90;;;1.61;100.00;101505.66;4944919;28;20092;-86
2022/02/08 00:13:02;;;;;;;47.20;4.55;;;;;;;1.65;100.00;101522.97;4928585;28;20033;-87
2022/02/08 00:15:28;;;;;;;60.50;5.90;;;3.30;99.90;;;1.62;100.00;101505.66;4946371;28;20033;-83
2022/02/08 00:17:54;;;;;;;65.50;5.82;;;3.20;99.90;;;1.58;100.00;101514.31;4985353;28;20500;-84
2022/02/08 00:20:29;;;;;;;64.90;5.78;;;3.30;99.90;;;1.57;100.00;101512.56;4905227;28;21397;-83
2022/02/08 00:22:55;;;;;;;66.38;5.78;;;;;;;1.54;100.00;101497.00;4940350;28;20039;-88
2022/02/08 00:25:21;;;;;;;65.80;5.45;;;3.20;99.90;;;1.53;100.00;101489.19;4964248;28;20506;-87
2022/02/08 00:27:59;;;;;;;52.22;5.40;;;3.20;99.90;;;1.49;100.00;101485.72;4950907;28;20037;-83
2022/02/08 00:30:25;;;;;;;42.28;4.95;;;3.10;99.90;;;1.46;100.00;101493.50;4978951;28;20063;-86
2022/02/08 00:33:00;;;;;;;57.53;5.55;;;3.10;99.90;;;1.46;100.00;101485.72;4938803;28;20083;-81
2022/02/08 00:35:26;;;;;;;64.80;5.07;;;3.10;99.90;;;1.40;100.00;101502.16;4927973;28;20046;-81
2022/02/08 00:37:52;;;;;;;58.53;5.47;;;3.10;99.90;;;1.41;100.00;101503.88;4960346;28;20033;-81
2022/02/08 00:40:21;;;;;;;40.90;4.38;;;3.10;99.90;;;1.41;100.00;101500.41;4928238;28;20032;-81
2022/02/08 00:42:52;;;;;;;59.55;5.40;;;3.10;99.90;;;1.40;100.00;101511.63;4925880;28;20029;-80
2022/02/08 00:47:51;;;;;;;52.22;4.75;;;3.00;99.90;;;1.35;100.00;101524.59;4947605;28;20044;-80
2022/02/08 00:50:17;;;;;;;50.65;4.88;;;3.00;99.90;;;1.31;100.00;101525.44;4993604;28;20040;-81
2022/02/08 00:52:43;;;;;;;49.83;4.22;;;3.00;99.90;;;1.28;100.00;101521.97;4961868;28;20041;-80
2022/02/08 00:55:12;;;;;;;49.38;5.50;;;2.90;99.90;;;1.27;100.00;101521.09;4923540;28;20121;-80
2022/02/08 00:57:44;;;;;;;63.95;5.20;;;2.90;99.90;;;1.25;100.00;101522.81;4965309;28;20033;-80
2022/02/08 01:00:11;;;;;;;58.28;5.18;;;2.90;99.90;;;1.22;100.00;101522.81;4931745;28;20037;-80
2022/02/08 01:02:37;;;;;;;49.47;4.50;;;2.90;99.90;;;1.20;100.00;101520.19;4935138;28;20030;-80
2022/02/08 01:05:06;;;;;;;54.63;4.85;;;2.90;99.90;;;1.22;100.00;101517.63;4953780;28;20028;-80
2022/02/08 01:07:42;;;;;;;58.58;4.70;;;2.90;99.90;;;1.24;100.00;101510.72;4905522;28;20572;-81
2022/02/08 01:10:10;;;;;;;50.58;5.32;;;2.90;99.90;;;1.25;100.00;101503.78;4917652;28;20064;-81
2022/02/08 01:12:43;;;;;;;52.72;5.10;;;2.90;99.90;;;1.29;100.00;101501.22;4946552;28;20058;-79
2022/02/08 01:15:10;;;;;;;60.38;4.57;;;2.90;99.90;;;1.30;100.00;101508.16;4952526;28;20526;-78
2022/02/08 01:17:36;;;;;;;54.67;5.05;;;2.90;99.90;;;1.33;100.00;101496.91;4972485;28;20032;-79
2022/02/08 01:20:20;;;;;;;49.15;4.97;;;3.00;99.90;;;1.33;100.00;101490.00;4943830;28;20029;-79
2022/02/08 01:22:48;;;;;;;45.25;4.15;;;3.00;99.90;;;1.31;100.00;101483.06;4977356;28;20096;-79
2022/02/08 01:25:20;;;;;;;70.20;6.28;;;2.90;99.90;;;1.32;100.00;101495.16;4937514;28;20040;-79
2022/02/08 01:27:59;;;;;;;51.83;4.28;;;2.90;99.90;;;1.30;100.00;101456.25;4919118;28;20042;-79
2022/02/08 01:30:44;;;;;;;56.20;4.50;;;2.90;99.90;;;1.28;100.00;101490.84;4948094;28;20040;-78
2022/02/08 01:33:35;;;;;;;35.60;4.28;;;2.90;99.90;;;1.31;100.00;101485.66;4936358;28;20025;-79
2022/02/08 01:36:25;;;;;;;46.97;4.15;;;3.00;99.90;;;1.32;100.00;101477.88;4983290;28;20041;-79
2022/02/08 01:39:08;;;;;;;50.80;4.78;;;2.90;99.90;;;1.32;100.00;101488.25;4951277;28;20129;-79
2022/02/08 01:47:13;;;;;;;43.50;4.40;;;3.00;99.90;;;1.34;100.00;101477.88;4938529;28;20457;-78
2022/02/08 01:50:10;;;;;;;52.45;4.85;;;2.90;99.90;;;1.30;100.00;101471.81;4906944;28;20018;-79
2022/02/08 01:52:41;;;;;;;49.15;4.15;;;2.90;99.90;;;1.28;100.00;101483.06;4970494;28;20029;-79
2022/02/08 01:55:11;;;;;;;53.15;4.30;;;2.90;99.90;;;1.30;100.00;101481.34;4966030;28;20028;-79
2022/02/08 01:57:47;;;;;;;54.67;4.35;;;2.90;99.90;;;1.31;100.00;101481.31;4959656;28;20082;-78
2022/02/08 02:00:17;;;;;;;60.50;5.60;;;2.90;99.90;;;1.31;100.00;101475.28;4932472;28;20335;-78
2022/02/08 02:02:53;;;;;;;38.42;3.58;;;2.90;99.90;;;1.31;100.00;101475.28;4982378;28;20079;-79
2022/02/08 02:05:19;;;;;;;63.95;4.90;;;2.90;99.90;;;1.32;100.00;101477.00;4947893;28;20109;-78
2022/02/08 02:07:49;;;;;;;54.80;6.75;;;3.00;99.90;;;1.36;100.00;101486.53;4937811;28;20060;-80
2022/02/08 02:10:21;;;;;;;54.15;4.30;;;3.00;99.90;;;1.37;100.00;101475.31;4937729;28;20036;-80
2022/02/08 02:13:00;;;;;;;46.65;4.28;;;3.00;99.90;;;1.41;100.00;101466.66;4954481;28;20086;-78
2022/02/08 02:15:29;;;;;;;41.85;4.30;;;3.00;99.90;;;1.46;100.00;101469.28;4939148;28;20033;-79
2022/02/08 02:18:01;;;;;;;55.83;4.35;;;3.10;99.90;;;1.53;100.00;101471.88;4948345;28;20528;-79
2022/02/08 02:20:29;;;;;;;46.33;4.05;;;3.20;99.90;;;1.60;100.00;101462.41;4931134;28;20112;-79
2022/02/08 02:22:55;;;;;;;42.90;4.60;;;3.20;99.90;;;1.69;100.00;101462.41;4960336;28;20068;-78
2022/02/08 02:25:33;;;;;;;50.53;6.07;;;3.30;99.90;;;1.78;100.00;101465.00;4934538;28;20037;-79
2022/02/08 02:28:07;;;;;;;50.70;4.90;;;3.30;99.90;;;1.84;100.00;101457.22;4963607;28;20037;-78
2022/02/08 02:30:34;;;;;;;43.83;4.38;;;3.40;99.90;;;1.91;100.00;101465.91;4966128;28;20112;-79
2022/02/08 02:33:02;;;;;;;47.42;4.20;;;3.50;99.90;;;1.98;100.00;101459.81;4945837;28;20034;-78
2022/02/08 02:35:30;;;;;;;46.78;3.72;;;3.60;99.90;;;2.02;100.00;101450.31;4993554;28;20037;-79
2022/02/08 02:38:02;;;;;;;47.45;4.28;;;3.60;99.90;;;2.09;100.00;101449.44;4987907;28;20037;-79
2022/02/08 02:40:31;;;;;;;41.90;4.82;;;3.70;99.90;;;2.15;100.00;101451.19;4930609;28;20026;-78
2022/02/08 02:42:58;;;;;;;47.22;4.43;;;3.80;99.90;;;2.22;100.00;101458.09;4945540;28;20687;-78
2022/02/08 02:45:33;;;;;;;43.75;4.75;;;3.80;99.90;;;2.23;100.00;101442.53;4896076;28;20021;-79
2022/02/08 02:47:59;;;;;;;57.60;5.55;;;3.80;99.90;;;2.30;100.00;101447.72;4924428;28;20183;-78
2022/02/08 02:50:26;;;;;;;42.28;3.78;;;3.90;99.90;;;2.32;100.00;101454.63;4969059;28;20112;-78
2022/02/08 02:53:00;;;;;;;58.28;5.75;;;3.90;99.90;;;2.33;100.00;101448.56;4982683;28;20559;-79
2022/02/08 02:55:31;;;;;;;41.83;4.78;;;3.90;99.90;;;2.37;100.00;101447.69;4946040;28;20032;-79
2022/02/08 02:58:01;;;;;;;41.75;4.95;;;4.00;99.90;;;2.39;100.00;101445.09;4912004;28;20032;-79
2022/02/08 03:03:08;;;;;;;54.58;5.50;;;4.00;99.90;;;2.45;100.00;101439.91;4958469;28;20036;-79
2022/02/08 03:19:14;;;;;;;38.40;4.35;;;4.20;99.90;;;2.58;100.00;101440.75;4989901;28;20442;-79
2022/02/08 03:21:48;;;;;;;47.35;4.28;;;4.20;99.90;;;2.61;100.00;101440.72;4986011;28;20058;-79
2022/02/08 03:24:14;;;;;;;34.75;4.97;;;4.20;99.90;;;2.64;100.00;101441.59;4939480;28;20029;-79
2022/02/08 03:26:41;;;;;;;30.95;4.20;;;4.20;99.90;;;2.66;100.00;101442.44;4984389;28;20049;-79
2022/02/08 03:29:15;;;;;;;36.47;4.55;;;4.30;99.90;;;2.65;100.00;101443.31;4929619;28;20037;-79
2022/02/08 03:31:42;;;;;;;37.58;4.28;;;4.30;99.90;;;2.63;100.00;101441.59;4955011;28;20097;-79
2022/02/08 03:34:08;;;;;;;35.40;4.50;;;4.30;99.90;;;2.63;100.00;101439.84;4936954;28;20165;-79
2022/02/08 03:36:34;;;;;;;37.45;4.80;;;4.30;99.90;;;2.66;100.00;101432.06;4942844;28;20027;-79
2022/02/08 03:41:40;;;;;;;41.95;4.50;;;4.30;99.90;;;2.70;100.00;101435.53;4968045;28;20582;-79
2022/02/08 03:44:15;;;;;;;31.85;4.93;;;4.30;99.90;;;2.70;100.00;101440.72;4942290;22;20784;-80
2022/02/08 03:46:52;;;;;;;54.28;6.68;;;4.30;99.90;;;2.77;100.00;101436.38;4867038;28;20497;-79
2022/02/08 03:49:18;;;;;;;28.70;3.97;;;4.30;99.90;;;2.77;100.00;101428.56;4874903;28;20474;-78
2022/02/08 03:51:58;;;;;;;30.13;3.97;;;4.40;99.90;;;2.81;100.00;101430.28;4908319;28;20129;-80
2022/02/08 03:54:24;;;;;;;33.80;4.63;;;4.40;99.90;;;2.84;100.00;101419.84;4927362;28;20026;-80
2022/02/08 03:56:53;;;;;;;38.03;4.40;;;4.40;99.90;;;2.83;100.00;101418.09;4903001;28;20033;-79
2022/02/08 03:59:19;;;;;;;34.75;4.72;;;4.50;99.90;;;2.84;100.00;101415.50;4895237;28;20022;-80
2022/02/08 04:07:08;;;;;;;26.55;3.15;;;4.50;99.90;;;2.90;100.00;101412.03;4916859;28;20050;-79
2022/02/08 04:09:34;;;;;;;32.67;3.20;;;4.50;99.90;;;2.91;100.00;101412.91;4911047;28;20030;-79
2022/02/08 04:12:05;;;;;;;21.85;3.47;;;4.50;99.90;;;2.96;100.00;101409.41;4902954;28;24257;-79
2022/02/08 04:14:53;;;;;;;46.05;4.90;;;4.60;99.90;;;2.98;100.00;101407.66;4908110;28;20035;-79
2022/02/08 04:18:17;;;;;;;31.33;3.63;;;4.50;99.90;;;2.99;100.00;101400.72;4921469;28;20109;-79
2022/02/08 04:31:38;;;;;;;26.48;4.03;;;4.70;99.90;;;3.10;100.00;101377.25;4917246;28;20056;-79
2022/02/08 04:42:02;;;;;;;21.70;2.95;;;4.70;99.90;;;3.10;100.00;101339.09;4931956;28;20083;-79
2022/02/08 04:44:40;;;;;;;24.33;3.42;;;4.70;99.90;;;3.11;100.00;101337.34;4895415;28;20044;-79
2022/02/08 04:47:18;;;;;;;29.55;3.00;;;4.70;99.90;;;3.15;100.00;101339.03;4885916;28;20034;-78
2022/02/08 04:49:44;;;;;;;25.48;3.53;;;4.70;99.90;;;3.13;100.00;101343.41;4963303;28;20072;-80
2022/02/08 05:00:56;;;;;;;31.33;3.33;;;4.70;99.90;;;3.12;100.00;101339.94;4929204;28;20028;-80
2022/02/08 05:42:21;;;;;;;34.10;4.47;;;4.50;99.90;;;2.81;100.00;101298.50;4902567;28;20049;-79
2022/02/08 05:44:55;;;;;;;24.23;4.25;;;4.50;99.90;;;2.79;100.00;101289.84;4909903;28;20088;-79
2022/02/08 05:47:22;;;;;;;35.65;5.32;;;4.50;99.90;;;2.79;100.00;101289.84;4892291;28;20061;-80
2022/02/08 05:50:04;;;;;;;27.13;4.28;;;4.50;99.90;;;2.83;100.00;101293.25;4903465;28;20037;-79
2022/02/08 05:52:49;;;;;;;31.27;5.40;;;4.50;99.90;;;2.78;100.00;101284.63;4900049;28;20074;-79
2022/02/08 05:55:21;;;;;;;35.88;4.25;;;4.50;99.90;;;2.83;100.00;101286.34;4904534;28;20374;-79
2022/02/08 05:57:48;;;;;;;28.05;4.13;;;4.50;99.90;;;2.82;100.00;101270.75;4908736;28;20034;-78
2022/02/08 06:00:16;;;;;;;27.48;4.30;;;4.50;99.90;;;2.90;100.00;101278.50;4948015;28;20510;-79
2022/02/08 06:02:42;;;;;;;29.35;4.60;;;4.50;99.90;;;2.90;100.00;101275.91;4903639;28;20034;-79
2022/02/08 06:05:19;;;;;;;23.92;4.32;;;4.50;99.90;;;2.88;100.00;101266.38;4870160;28;20166;-79
2022/02/08 06:07:46;;;;;;;31.20;5.10;;;4.50;99.90;;;2.96;100.00;101265.44;4883906;28;20418;-79
2022/02/08 06:10:18;;;;;;;36.80;5.10;;;4.60;99.90;;;2.98;100.00;101275.00;4870068;28;20051;-80
2022/02/08 06:12:45;;;;;;;30.35;5.22;;;4.60;99.90;;;3.01;100.00;101263.69;4894947;28;20034;-78
2022/02/08 06:15:14;;;;;;;29.40;5.05;;;4.60;99.90;;;3.00;100.00;101267.16;4885741;28;20026;-79
2022/02/08 06:17:48;;;;;;;23.15;4.97;;;4.60;99.90;;;3.02;100.00;101255.00;4916599;28;20022;-80
2022/02/08 06:20:15;;;;;;;23.75;4.95;;;4.60;99.90;;;3.05;100.00;101252.41;4901013;28;20030;-79
2022/02/08 06:22:42;;;;;;;26.50;4.88;;;4.70;99.90;;;3.04;100.00;101246.31;4873094;28;20030;-80
2022/02/08 06:25:18;;;;;;;22.75;5.20;;;4.70;99.90;;;3.08;100.00;101236.75;4894625;28;20035;-79
2022/02/08 06:27:48;;;;;;;;;;;4.70;99.90;;;3.07;100.00;101241.09;4951130;28;20034;-79
2022/02/08 06:30:21;;;;;;;28.70;5.55;;;4.70;99.90;;;3.08;100.00;101240.19;4908931;28;19988;-80
2022/02/08 06:32:49;;;;;;;24.17;5.22;;;4.70;99.90;;;3.16;100.00;101234.94;4911970;28;20030;-79
2022/02/08 06:35:27;;;;;;;42.47;5.75;;;4.80;99.90;;;3.17;100.00;101222.81;4914837;28;20031;-80
2022/02/08 06:37:54;;;;;;;32.00;5.70;;;4.80;99.90;;;3.19;100.00;101221.91;4932828;28;20081;-80
2022/02/08 06:40:26;;;;;;;29.52;5.45;;;4.80;99.90;;;3.24;100.00;101224.47;4863568;28;20046;-79
2022/02/08 06:43:06;;;;;;;28.92;6.28;;;4.80;99.90;;;3.28;100.00;101213.16;4885094;28;20046;-79
2022/02/08 06:45:34;;;;;;;32.63;5.95;;;4.90;99.90;;;3.27;100.00;101201.88;4879681;28;20441;-79
2022/02/08 06:48:03;;;;;;;28.70;6.30;;;4.80;99.90;;;3.29;100.00;101209.69;4868782;28;20122;-80
2022/02/08 06:50:39;;;;;;;22.27;6.32;;;4.90;99.90;;;3.35;100.00;101200.94;4854515;28;20042;-79
2022/02/08 06:53:05;;;;;;;25.80;6.32;;;4.90;99.90;;;3.34;100.00;101199.22;4878215;28;20103;-79
2022/02/08 06:55:32;;;;;;;26.48;6.65;;;5.00;99.90;;;3.36;100.00;101198.34;4895965;28;20034;-78
2022/02/08 06:58:09;;;;;;;40.67;6.95;;;4.90;99.90;;;3.38;100.00;101193.97;4926651;28;20082;-79
2022/02/08 07:00:44;;;;;;;41.97;6.93;;;5.00;99.90;;;3.41;100.00;101198.28;4897214;28;20064;-79
2022/02/08 07:03:14;;;;;;;32.72;6.85;;;5.00;99.90;;;3.46;100.00;101196.53;4937447;28;20041;-79
2022/02/08 07:05:42;;;;;;;33.28;6.70;;;5.00;99.90;;;3.47;100.00;101203.44;4929582;23;20038;-80
2022/02/08 07:08:11;;;;;;;24.48;6.43;;;5.00;99.90;;;3.49;100.00;101199.94;4928742;28;20101;-79
2022/02/08 07:10:39;;;;;;;32.83;7.75;;;5.10;99.90;;;3.54;100.00;101206.84;4927347;28;20618;-79
2022/02/08 07:13:16;;;;;;;28.55;8.30;;;5.10;99.90;;;3.57;100.00;101191.22;4929269;28;20463;-78
2022/02/08 07:15:41;;;;;;;29.52;8.60;;;5.20;99.90;;;3.62;100.00;101190.25;4896495;28;20035;-79
2022/02/08 07:18:07;;;;;;;31.60;10.07;;;5.20;99.90;;;3.71;100.00;101189.31;4888476;28;20076;-79
2022/02/08 07:20:34;;;;;;;35.97;10.15;;;5.30;99.90;;;3.79;100.00;101194.44;4906456;28;20031;-80
2022/02/08 07:23:07;;;;;;;34.28;11.90;;;5.30;99.90;;;3.84;100.00;101190.88;4896729;28;20613;-80
2022/02/08 07:25:33;;;;;;;34.75;10.50;;;5.40;99.90;;;3.90;100.00;101203.84;4905101;28;20109;-79
2022/02/08 07:27:59;;;;;;;30.67;10.50;;;5.40;99.90;;;3.98;100.00;101208.13;4916165;28;20412;-78
2022/02/08 07:30:27;;;;;;;37.80;10.85;;;5.50;99.90;;;4.03;100.00;101198.50;4904018;28;20072;-79
2022/02/08 07:33:02;;;;;;;29.95;11.10;;;5.50;99.90;;;4.04;100.00;101195.00;4879440;28;20046;-79
2022/02/08 07:35:45;;;;;;;29.47;11.70;;;5.60;99.90;;;4.07;100.00;101197.59;4915189;28;20049;-79
2022/02/08 07:38:22;;;;;;;32.63;11.10;;;5.70;99.90;;;4.16;100.00;101197.47;4887057;28;20068;-80
2022/02/08 07:43:24;;;;;;;39.08;12.18;;;5.70;99.90;;;4.17;100.00;101175.75;4980945;28;20517;-79
2022/02/08 07:45:50;;;;;;;33.27;12.40;;;5.70;99.90;;;4.24;100.00;101177.38;4978031;28;20022;-78
2022/02/08 07:48:15;;;;;;;33.53;12.30;;;5.80;99.90;;;4.24;100.00;101174.78;4927105;28;20038;-78
2022/02/08 07:50:42;;;;;;;38.13;12.70;;;5.80;99.90;;;4.29;100.00;101153.84;4940546;28;20052;-79
2022/02/08 07:53:14;;;;;;;38.55;13.88;;;5.80;99.90;;;4.27;100.00;101164.28;4992905;28;20472;-79
2022/02/08 07:55:42;;;;;;;38.72;14.27;;;5.80;99.90;;;4.35;100.00;101163.34;4903153;28;20035;-79
2022/02/08 07:58:08;;;;;;;37.45;14.13;;;5.90;99.90;;;4.38;100.00;101166.75;4928077;28;20018;-79
2022/02/08 08:00:42;;;;;;;37.10;13.93;;;5.90;99.90;;;4.43;100.00;101153.69;4898548;28;20080;-79
2022/02/08 08:03:08;;;;;;;42.22;15.45;;;6.00;99.90;;;4.47;100.00;101147.50;4887161;28;20077;-79
2022/02/08 08:05:35;;;;;;;45.80;15.52;;;6.00;99.90;;;4.55;100.00;101156.09;4919159;28;20527;-80
2022/02/08 08:08:01;;;;;;;45.92;14.45;;;6.00;99.90;;;4.57;100.00;101141.28;4913002;28;20089;-79
2022/02/08 08:10:31;;;;;;;36.42;14.75;;;6.10;99.90;;;4.59;100.00;101134.28;4908058;28;20034;-80
2022/02/08 08:13:01;;;;;;;42.53;16.77;;;6.10;99.90;;;4.60;100.00;101140.38;4882451;28;20042;-81
2022/02/08 08:15:39;;;;;;;49.28;16.33;;;6.10;99.90;;;4.64;100.00;101136.81;4975010;28;20098;-79
2022/02/08 08:20:46;;;;;;;43.03;16.08;;;6.20;99.90;;;4.70;100.00;101136.75;4934538;28;20083;-78
2022/02/08 08:23:12;;;;;;;40.22;16.83;;;6.20;99.90;;;4.71;100.00;101141.09;4933581;28;20026;-80
2022/02/08 08:25:38;;;;;;;43.38;17.85;;;6.30;99.90;;;4.75;100.00;101123.63;4963545;28;20093;-80
2022/02/08 08:28:11;;;;;;;44.03;17.75;;;6.30;99.90;;;4.82;100.00;101130.47;4897213;28;20058;-79
2022/02/08 08:30:39;;;;;;;46.60;18.58;;;6.30;99.90;;;4.85;100.00;101126.06;4907023;28;20029;-80
2022/02/08 08:33:16;;;;;;;48.80;19.10;;;6.40;99.90;;;4.88;100.00;101130.34;4932969;28;20065;-80
2022/02/08 08:35:42;;;;;;;50.25;17.67;;;6.40;99.90;;;4.90;100.00;101113.81;4870219;28;20430;-79
2022/02/08 08:38:15;;;;;;;43.13;18.05;;;6.40;99.90;;;4.92;100.00;101112.03;4909918;28;20053;-79
2022/02/08 08:40:59;;;;;;;57.42;20.15;;;6.50;99.90;;;5.00;100.00;101106.66;4858384;28;20039;-79
2022/02/08 08:51:38;;;;;;;50.65;18.88;;;6.60;99.90;;;5.10;100.00;101095.19;4941595;28;20046;-82
2022/02/08 08:54:06;;;;;;;55.60;19.83;;;6.60;99.90;;;5.09;100.00;101116.94;4901714;28;20057;-80
2022/02/08 08:56:31;;;;;;;49.25;18.25;;;6.60;99.90;;;5.08;100.00;101096.09;4928186;28;20034;-79
2022/02/08 08:58:57;;;;;;;59.90;20.95;;;6.60;99.90;;;5.16;100.00;101122.91;4874334;28;20053;-80
2022/02/08 09:01:30;;;;;;;58.47;20.67;;;6.70;99.90;;;5.16;100.00;101109.00;4940081;28;20471;-79
2022/02/08 09:03:55;;;;;;;51.03;20.77;;;6.70;99.90;;;5.24;100.00;101091.44;4887216;28;20035;-79
2022/02/08 09:06:22;;;;;;;60.92;22.10;;;6.70;99.90;;;5.27;100.00;101094.00;4901339;28;20036;-82
2022/02/08 09:08:48;;;;;;;55.00;20.85;;;6.80;99.90;;;5.30;100.00;101102.63;4893313;28;20109;-80
2022/02/08 09:11:22;;;;;;;54.17;21.33;;;6.80;99.90;;;5.32;100.00;101102.63;4927188;28;20470;-80
2022/02/08 09:16:33;;;;;;;58.90;23.05;;;6.80;99.90;;;5.37;100.00;101089.47;4913145;28;20517;-80
2022/02/08 09:29:52;;;;;;;53.65;20.90;;;7.00;99.90;;;5.59;100.00;101098.59;4937026;28;20071;-81
2022/02/08 09:32:39;;;;;;;49.10;20.02;;;7.00;99.90;;;5.60;100.00;101094.25;4890450;28;20034;-79
2022/02/08 09:35:10;;;;;;;48.50;21.60;;;7.10;99.90;;;5.63;100.00;101083.72;4896553;28;20091;-81
2022/02/08 09:37:38;;;;;;;52.28;20.35;;;7.10;99.90;;;5.65;100.00;101092.41;4880926;28;20515;-81
2022/02/08 09:40:19;;;;;;;44.60;20.17;;;7.20;99.90;;;5.68;100.00;101082.75;4885381;28;20043;-81
2022/02/08 09:42:51;;;;;;;51.20;21.13;;;7.20;99.90;;;5.74;100.00;101092.19;4873629;28;20022;-80
2022/02/08 09:45:19;;;;;;;44.00;19.60;;;7.20;99.90;;;5.71;100.00;101089.66;4885699;28;21143;-81
2022/02/08 09:48:00;;;;;;;46.75;20.27;;;7.20;99.90;;;5.80;100.00;101086.84;4920307;28;20110;-80
2022/02/08 09:50:32;;;;;;;56.15;21.55;;;7.30;99.90;;;5.84;100.00;101098.97;4920416;28;20471;-79
2022/02/08 09:53:03;;;;;;;45.90;20.15;;;7.30;99.90;;;5.85;100.00;101105.94;4902262;28;20033;-80
2022/02/08 09:55:41;;;;;;;44.97;20.20;;;7.30;99.90;;;5.90;100.00;101096.22;4888591;28;20038;-80
2022/02/08 09:58:09;;;;;;;50.55;21.55;;;7.40;99.90;;;5.90;100.00;101111.91;4879674;28;20027;-82
2022/02/08 10:01:16;;;;;;;50.70;21.00;;;7.40;99.90;;;5.97;100.00;101106.59;4891063;28;20061;-79
2022/02/08 10:04:01;;;;;;;55.28;21.48;;;7.40;99.90;;;5.95;100.00;101106.63;4877978;28;20026;-80
2022/02/08 10:06:40;;;;;;;50.65;20.52;;;7.40;99.90;;;5.95;100.00;101104.84;4886626;28;20043;-82
2022/02/08 10:09:14;;;;;;;49.97;20.23;;;;;;;5.99;100.00;101097.81;4914799;28;20088;-80
2022/02/08 10:12:19;;;;;;;44.00;20.85;;;7.50;99.90;;;5.99;100.00;101096.97;4927458;28;20063;-80
2022/02/08 10:22:51;;;;;;;49.60;20.17;;;7.60;99.90;;;6.24;100.00;101099.88;4908005;28;20088;-79
2022/02/08 10:28:29;;;;;;;47.17;20.27;;;7.70;99.90;;;6.33;100.00;101081.38;4907486;28;20077;-82
2022/02/08 10:31:28;;;;;;;44.88;19.52;;;7.80;99.90;;;6.33;100.00;101079.63;4907481;28;20026;-79
2022/02/08 10:40:04;;;;;;;41.10;17.73;;;7.80;99.90;;;6.40;100.00;101069.00;4916687;28;20184;-80
2022/02/08 10:42:34;;;;;;;44.40;18.02;;;7.80;99.90;;;6.44;100.00;101071.50;4879936;28;20066;-80
2022/02/08 10:45:04;;;;;;;39.20;18.90;;;7.90;99.90;;;6.53;100.00;101086.13;4898320;28;20378;-81
2022/02/08 10:47:41;;;;;;;37.80;17.33;;;7.90;99.90;;;6.53;100.00;101078.28;4922232;28;20455;-80
2022/02/08 10:50:09;;;;;;;41.83;17.38;;;8.00;99.90;;;6.58;100.00;101077.25;4913474;28;20030;-82
2022/02/08 10:52:45;;;;;;;39.80;17.92;;;8.00;99.90;;;6.65;100.00;101077.09;4887521;28;20039;-80
2022/02/08 10:57:58;;;;;;;43.55;17.17;;;8.10;99.90;;;6.77;100.00;101066.34;4931470;28;20065;-81
2022/02/08 11:00:36;;;;;;;37.03;17.23;;;8.20;99.90;;;6.89;100.00;101059.91;4932377;28;20041;-82
2022/02/08 11:03:10;;;;;;;40.10;17.23;;;8.30;99.90;;;6.94;100.00;101068.53;4899679;28;20035;-80
2022/02/08 11:05:44;;;;;;;45.83;16.92;;;8.30;99.90;;;7.03;100.00;101070.91;4887868;28;20550;-79
2022/02/08 11:08:25;;;;;;;39.88;17.42;;;8.40;99.90;;;7.07;100.00;101069.91;4889547;28;20588;-79
2022/02/08 11:11:19;;;;;;;37.55;17.50;;;8.40;99.90;;;7.08;100.00;101082.09;4919422;28;20029;-80
2022/02/08 11:14:16;;;;;;;38.55;17.70;;;8.40;99.90;;;7.10;100.00;101095.16;4915071;28;20030;-79
2022/02/08 11:20:03;;;;;;;36.45;18.38;;;8.50;99.90;;;7.17;100.00;101086.22;4906319;28;20104;-79
2022/02/08 11:23:07;;;;;;;37.92;16.50;;;8.60;99.90;;;7.23;100.00;101093.94;4878155;28;20084;-79
2022/02/08 11:25:44;;;;;;;36.10;15.82;;;8.50;99.90;;;7.23;100.00;101091.31;4906672;28;20034;-80
2022/02/08 11:28:40;;;;;;;37.67;16.13;;;8.60;99.90;;;7.25;100.00;101094.75;4880827;28;20503;-79
2022/02/08 11:31:23;;;;;;;35.95;15.82;;;8.60;99.90;;;7.28;100.00;101096.41;4922448;28;20040;-79
2022/02/08 11:48:58;;;;;;;26.83;11.93;;;8.70;99.90;;;7.35;100.00;101059.56;4907749;28;20957;-80
2022/02/08 11:51:43;;;;;;;28.77;12.35;;;8.70;99.90;;;7.41;100.00;101063.78;4927871;28;20122;-79
2022/02/08 11:54:56;;;;;;;20.38;10.70;;;8.80;99.90;;;7.45;100.00;101062.78;4960258;28;20050;-78
2022/02/08 12:00:15;;;;;;;22.77;10.63;;;8.80;99.90;;;7.45;100.00;101062.78;4907240;28;20193;-79
2022/02/08 12:06:01;;;;;;;20.02;9.70;;;8.90;99.90;;;7.54;100.00;101070.38;4894990;28;20115;-80
2022/02/08 12:08:27;;;;;;;17.98;9.25;;;9.00;99.90;;;7.69;100.00;101069.09;4953558;28;20039;-79
2022/02/08 12:11:37;;;;;;;20.25;8.98;;;9.00;99.90;;;7.74;100.00;101066.31;4946015;28;20046;-79
2022/02/08 13:24:46;;;;;;;1.52;0.77;;;9.70;99.90;;;8.32;100.00;101051.41;4893376;28;20037;-79
2022/02/08 14:01:45;;;;;;;1.35;0.77;;;9.40;99.90;;;8.11;100.00;101115.91;4918795;28;20433;-78
2022/02/08 14:07:05;;;;;;;2.88;0.80;;;9.50;99.90;;;8.13;100.00;101110.63;4919989;28;20061;-80
2022/02/08 14:09:50;;;;;;;2.92;1.00;;;9.50;99.90;;;8.14;100.00;101115.81;4912548;28;20076;-79
2022/02/08 14:21:42;;;;;;;5.75;1.50;;;9.50;99.90;;;8.05;100.00;101139.69;4922149;28;20045;-80
2022/02/08 14:34:37;;;;;;;3.35;1.23;;;9.30;99.90;;;7.88;100.00;101157.66;4940526;28;20514;-80
2022/02/08 15:09:55;;;;;;;9.43;1.73;;;9.10;99.90;;;7.70;100.00;101180.03;4896923;28;20057;-79
2022/02/08 15:12:27;;;;;;;6.95;1.27;;;9.10;99.90;;;7.69;100.00;101183.53;4893021;28;20035;-80
2022/02/08 15:15:00;;;;;;;9.02;1.10;;;9.00;99.90;;;7.55;100.00;101190.00;4915481;28;20030;-78
2022/02/08 15:17:29;;;;;;;3.92;0.93;;;9.00;99.90;;;7.49;100.00;101184.91;4906189;28;20647;-79
2022/02/08 15:19:58;;;;;;;11.00;1.10;;;8.90;99.90;;;7.46;100.00;101190.25;4906726;28;20421;-79
2022/02/08 15:22:24;;;;;;;7.47;1.30;;;8.90;99.90;;;7.48;100.00;101180.59;4912745;28;20063;-78
2022/02/08 15:24:51;;;;;;;6.00;1.00;;;8.80;99.90;;;7.40;100.00;101182.56;4937008;28;20033;-79
2022/02/08 15:27:20;;;;;;;6.35;1.42;;;8.80;99.90;;;7.29;100.00;101188.06;4951165;28;20117;-79
2022/02/08 15:29:49;;;;;;;8.15;1.40;;;8.70;99.90;;;7.28;100.00;101195.97;4900835;28;20461;-77
2022/02/08 15:32:15;;;;;;;10.30;1.65;;;8.70;99.90;;;7.25;100.00;101198.66;4966079;28;20028;-79
2022/02/08 15:34:45;;;;;;;7.32;1.52;;;8.70;99.90;;;7.24;100.00;101202.19;4922040;28;21049;-78
2022/02/08 15:37:12;;;;;;;6.43;1.25;;;8.60;99.90;;;7.15;100.00;101219.00;4905674;28;20082;-79
2022/02/08 15:39:38;;;;;;;14.38;1.95;;;8.60;99.90;;;7.13;100.00;101220.81;4918104;28;20069;-78
2022/02/08 15:42:05;;;;;;;13.52;1.92;;;8.50;99.90;;;7.14;100.00;101227.75;4891028;28;20502;-79
2022/02/08 15:44:32;;;;;;;15.48;2.30;;;8.50;99.90;;;7.14;100.00;101232.97;4914698;28;20038;-78
2022/02/08 15:47:03;;;;;;;16.58;2.17;;;8.50;99.90;;;7.12;100.00;101243.47;4919412;28;20054;-79
2022/02/08 15:49:35;;;;;;;12.63;2.13;;;8.50;99.90;;;7.07;100.00;101239.28;4916559;28;20280;-80
2022/02/08 15:52:16;;;;;;;18.15;2.47;;;8.50;99.90;;;7.00;100.00;101254.28;4921928;28;20024;-78
2022/02/08 15:54:46;;;;;;;12.55;1.90;;;8.40;99.90;;;6.88;100.00;101239.69;4905642;28;20040;-79
2022/02/08 16:05:37;;;;;;;17.63;2.58;;;8.30;99.90;;;6.85;100.00;101273.81;4929521;28;20091;-78
2022/02/08 16:08:20;;;;;;;18.08;2.83;;;8.30;99.90;;;6.89;100.00;101285.06;4892724;28;20064;-80
2022/02/08 16:18:50;;;;;;;20.95;2.65;;;8.30;99.90;;;6.92;100.00;101290.22;4944169;28;20037;-78
2022/02/08 16:24:29;;;;;;;23.85;3.03;;;8.40;99.90;;;6.94;100.00;101298.91;4912906;28;20045;-78